Time;durP1;ratioP1;P1;durP2;ratioP2;P2;SDS_P1;SDS_P2;PMS_P1;PMS_P2;Temp;Humidity;BMP_temperature;BMP_pressure;BME280_temperature;BME280_humidity;BME280_pressure;Samples;Min_cycle;Max_cycle;Signal;HPM_P1;HPM_P2
2021/10/15 00:01:35;;;;;;;5.83;3.30;;;5.90;99.90;;;6.92;100.00;98554.75;5041730;28;21203;-82
2021/10/15 00:04:05;;;;;;;7.37;3.30;;;5.90;99.90;;;6.95;100.00;98556.22;5048182;28;20457;-83
2021/10/15 00:06:33;;;;;;;7.67;3.50;;;5.90;99.90;;;6.91;100.00;98547.91;5045699;28;20461;-82
2021/10/15 00:09:02;;;;;;;4.27;3.17;;;5.90;99.90;;;6.87;100.00;98541.38;5048183;28;21004;-82
2021/10/15 00:11:30;;;;;;;11.00;3.43;;;5.80;99.90;;;6.89;100.00;98543.84;5046576;28;20469;-82
2021/10/15 00:13:59;;;;;;;5.77;3.30;;;5.80;99.90;;;6.91;100.00;98539.28;5047204;28;21544;-82
2021/10/15 00:16:28;;;;;;;4.80;3.13;;;5.90;99.90;;;6.92;100.00;98533.94;5040556;28;20516;-82
2021/10/15 00:18:59;;;;;;;8.10;3.00;;;6.00;99.90;;;6.86;100.00;98539.75;5047725;28;20464;-82
2021/10/15 00:21:27;;;;;;;4.63;2.60;;;5.80;99.90;;;6.80;100.00;98534.34;5045536;28;20460;-82
2021/10/15 00:23:56;;;;;;;6.00;3.17;;;5.70;99.90;;;6.72;100.00;98531.69;5045856;28;20521;-82
2021/10/15 00:26:25;;;;;;;3.63;3.10;;;5.60;99.90;;;6.65;100.00;98530.66;5040215;28;20531;-82
2021/10/15 00:28:53;;;;;;;5.57;3.17;;;5.50;99.90;;;6.69;100.00;98535.41;5044380;28;20528;-82
2021/10/15 00:31:21;;;;;;;3.97;2.70;;;5.60;99.90;;;6.62;100.00;98525.75;5046327;28;20461;-82
2021/10/15 00:33:50;;;;;;;5.37;3.63;;;5.50;99.90;;;6.54;100.00;98524.72;5042742;28;20458;-82
2021/10/15 00:36:20;;;;;;;3.20;2.87;;;5.40;99.90;;;6.53;100.00;98523.06;5045732;28;20477;-82
2021/10/15 00:38:48;;;;;;;3.33;2.77;;;5.50;99.90;;;6.55;100.00;98526.38;5048173;28;20852;-82
2021/10/15 00:41:18;;;;;;;4.03;2.80;;;5.50;99.90;;;6.56;100.00;98522.78;5045178;28;20499;-82
2021/10/15 00:44:04;;;;;;;4.50;2.90;;;5.50;99.90;;;6.64;100.00;98519.44;5041183;28;20769;-82
2021/10/15 00:46:34;;;;;;;6.87;3.30;;;5.60;99.90;;;6.71;100.00;98514.44;5045971;28;20461;-82
2021/10/15 00:49:03;;;;;;;7.27;3.03;;;5.70;99.90;;;6.70;100.00;98512.84;5044368;28;20826;-82
2021/10/15 00:51:34;;;;;;;3.60;3.00;;;5.70;99.90;;;6.59;100.00;98506.88;5048639;28;20459;-82
2021/10/15 00:54:04;;;;;;;8.63;3.57;;;5.50;99.90;;;6.59;100.00;98506.88;5038522;28;20460;-82
2021/10/15 00:56:34;;;;;;;4.43;3.00;;;5.60;99.90;;;6.53;100.00;98506.66;5047460;28;20453;-82
2021/10/15 00:59:02;;;;;;;6.93;3.00;;;5.60;99.90;;;6.27;100.00;98501.44;5041374;28;20498;-82
2021/10/15 01:01:32;;;;;;;7.43;3.60;;;5.20;99.90;;;6.29;100.00;98499.50;5041532;28;20464;-82
2021/10/15 01:04:02;;;;;;;6.40;3.20;;;5.20;99.90;;;6.35;100.00;98493.69;5047013;28;20685;-82
2021/10/15 01:06:34;;;;;;;6.23;2.90;;;5.30;99.90;;;6.35;100.00;98493.69;5041847;28;20982;-82
2021/10/15 01:09:04;;;;;;;8.63;3.73;;;5.30;99.90;;;6.40;100.00;98490.66;5047758;28;20896;-82
2021/10/15 01:11:33;;;;;;;3.10;2.67;;;5.40;99.90;;;6.44;100.00;98487.63;5045885;28;20462;-82
2021/10/15 01:14:03;;;;;;;12.27;3.30;;;5.40;99.90;;;6.38;100.00;98492.59;5042824;28;20873;-82
2021/10/15 01:16:33;;;;;;;3.67;2.40;;;5.30;99.90;;;6.34;100.00;98481.69;5041019;28;20579;-82
2021/10/15 01:19:04;;;;;;;8.23;2.80;;;5.30;99.90;;;6.28;100.00;98474.47;5047438;28;20469;-82
2021/10/15 01:21:34;;;;;;;2.93;2.50;;;5.30;99.90;;;6.24;100.00;98475.78;5040434;28;20469;-82
2021/10/15 01:24:03;;;;;;;7.07;3.10;;;5.20;99.90;;;6.29;100.00;98473.53;5041718;28;20525;-81
2021/10/15 01:26:32;;;;;;;3.33;2.63;;;5.30;99.90;;;6.13;100.00;98473.38;5048043;28;20471;-82
2021/10/15 01:29:00;;;;;;;8.03;2.83;;;5.10;99.90;;;6.05;100.00;98476.72;5052015;28;20500;-82
2021/10/15 01:31:29;;;;;;;3.27;2.70;;;5.00;99.90;;;6.04;100.00;98474.25;5047348;28;20516;-82
2021/10/15 01:33:59;;;;;;;4.53;2.60;;;5.00;99.90;;;5.94;100.00;98473.50;5045812;28;20571;-82
2021/10/15 01:36:28;;;;;;;3.80;2.63;;;4.90;99.90;;;6.03;100.00;98463.09;5044898;28;20523;-82
2021/10/15 01:38:58;;;;;;;5.03;3.10;;;5.10;99.90;;;6.07;100.00;98458.41;5045374;28;20506;-82
2021/10/15 01:41:27;;;;;;;5.20;2.70;;;5.10;99.90;;;6.13;100.00;98452.63;5044404;28;20477;-82
2021/10/15 01:43:56;;;;;;;3.93;2.37;;;5.30;99.90;;;6.15;100.00;98458.47;5026476;28;20812;-81
2021/10/15 01:46:24;;;;;;;3.50;3.00;;;5.30;99.90;;;6.16;100.00;98452.31;5043914;28;20457;-81
2021/10/15 01:48:53;;;;;;;4.93;2.80;;;5.20;99.90;;;6.05;100.00;98450.75;5048843;28;20507;-82
2021/10/15 01:51:21;;;;;;;3.80;2.40;;;5.10;99.90;;;6.07;100.00;98453.22;5053696;28;20472;-82
2021/10/15 01:53:49;;;;;;;5.90;2.70;;;5.10;99.90;;;6.10;100.00;98447.72;5047023;28;20533;-82
2021/10/15 01:56:19;;;;;;;3.10;2.70;;;5.10;99.90;;;6.04;100.00;98443.94;5049859;28;21019;-82
2021/10/15 01:58:48;;;;;;;3.63;2.67;;;5.10;99.90;;;6.07;100.00;98445.44;5042221;28;20456;-81
2021/10/15 02:01:16;;;;;;;3.17;2.50;;;5.20;99.90;;;6.01;100.00;98436.44;5048625;28;20496;-82
2021/10/15 02:03:45;;;;;;;4.20;2.87;;;5.10;99.90;;;5.98;100.00;98441.13;5049640;28;20463;-82
2021/10/15 02:06:14;;;;;;;3.10;2.47;;;5.00;99.90;;;5.85;100.00;98441.47;5044799;28;21014;-83
2021/10/15 02:08:42;;;;;;;3.23;2.60;;;4.90;99.90;;;5.87;100.00;98441.31;5044650;28;21145;-81
2021/10/15 02:11:11;;;;;;;5.97;2.97;;;4.80;99.90;;;5.85;100.00;98432.84;5047285;28;20457;-81
2021/10/15 02:13:41;;;;;;;4.60;2.67;;;4.80;99.90;;;5.87;100.00;98431.78;5049759;28;20464;-82
2021/10/15 02:16:09;;;;;;;8.47;3.20;;;4.90;99.90;;;5.72;100.00;98435.81;5045153;28;21134;-81
2021/10/15 02:18:38;;;;;;;4.87;2.53;;;4.60;99.90;;;5.75;100.00;98432.94;5049619;28;20879;-81
2021/10/15 02:21:06;;;;;;;4.53;3.10;;;4.70;99.90;;;5.75;100.00;98424.31;5042234;28;20457;-82
2021/10/15 02:23:35;;;;;;;3.10;2.50;;;4.70;99.90;;;5.80;100.00;98416.91;5052220;28;20462;-81
2021/10/15 02:26:03;;;;;;;3.50;2.93;;;4.80;99.90;;;5.86;100.00;98413.78;5047324;28;20550;-81
2021/10/15 02:28:32;;;;;;;4.93;2.40;;;5.00;99.90;;;5.83;100.00;98414.03;5048175;28;20966;-82
2021/10/15 02:31:01;;;;;;;3.10;2.27;;;5.00;99.90;;;5.77;100.00;98410.25;5045825;28;20475;-81
2021/10/15 02:33:30;;;;;;;7.07;2.30;;;4.90;99.90;;;5.73;100.00;98410.66;5051617;28;20821;-81
2021/10/15 02:35:58;;;;;;;5.03;2.33;;;4.80;99.90;;;5.69;100.00;98405.00;5051822;28;20494;-81
2021/10/15 02:38:27;;;;;;;6.90;3.10;;;4.70;99.90;;;5.66;100.00;98417.44;5046389;28;20467;-82
2021/10/15 02:40:55;;;;;;;3.30;2.40;;;4.60;99.90;;;5.54;100.00;98409.03;5049203;28;20531;-81
2021/10/15 02:43:24;;;;;;;3.90;2.33;;;4.50;99.90;;;5.57;100.00;98408.75;5048301;28;20533;-81
2021/10/15 02:45:52;;;;;;;3.37;2.43;;;4.50;99.90;;;5.59;100.00;98405.03;5048146;28;20465;-81
2021/10/15 02:48:22;;;;;;;4.40;2.80;;;4.60;99.90;;;5.47;100.00;98401.03;5046692;28;21037;-81
2021/10/15 02:50:51;;;;;;;3.60;2.60;;;4.40;99.90;;;5.48;100.00;98404.44;5049781;28;20539;-82
2021/10/15 02:53:19;;;;;;;4.80;2.80;;;4.40;99.90;;;5.55;100.00;98400.31;5049614;28;20467;-81
2021/10/15 02:55:48;;;;;;;7.77;2.67;;;4.60;99.90;;;5.57;100.00;98393.19;5046933;28;20455;-81
2021/10/15 02:58:16;;;;;;;2.60;2.10;;;4.60;99.90;;;5.58;100.00;98394.81;5049795;28;20933;-81
2021/10/15 03:00:45;;;;;;;3.80;2.57;;;4.80;99.90;;;5.59;100.00;98389.47;5046625;28;20489;-81
2021/10/15 03:03:14;;;;;;;4.07;2.63;;;4.80;99.90;;;5.65;100.00;98395.03;5046057;28;20513;-81
2021/10/15 03:05:44;;;;;;;4.43;2.67;;;4.70;99.90;;;5.66;100.00;98384.50;5049789;28;20593;-81
2021/10/15 03:08:12;;;;;;;3.27;2.40;;;4.80;99.90;;;5.62;100.00;98390.97;5049334;28;20491;-81
2021/10/15 03:10:42;;;;;;;3.80;2.30;;;4.70;99.90;;;5.51;100.00;98384.22;5045857;28;20521;-81
2021/10/15 03:13:10;;;;;;;7.87;2.60;;;4.50;99.90;;;5.50;100.00;98398.16;5048430;28;20881;-81
2021/10/15 03:15:39;;;;;;;4.43;2.47;;;4.50;99.90;;;5.48;100.00;98389.69;5048190;28;20522;-81
2021/10/15 03:18:07;;;;;;;10.90;3.70;;;4.40;99.90;;;5.52;100.00;98391.03;5048574;28;20460;-81
2021/10/15 03:20:36;;;;;;;3.80;2.40;;;4.60;99.90;;;5.53;100.00;98400.44;5048717;28;20467;-81
2021/10/15 03:23:07;;;;;;;3.00;2.50;;;4.60;99.90;;;5.52;100.00;98392.78;5042017;28;20475;-81
2021/10/15 03:25:36;;;;;;;9.40;2.30;;;4.50;99.90;;;5.54;100.00;98399.50;5045872;28;20492;-81
2021/10/15 03:28:05;;;;;;;2.63;2.20;;;4.60;99.90;;;5.59;100.00;98391.25;5044281;28;20464;-81
2021/10/15 03:30:34;;;;;;;4.13;2.50;;;4.60;99.90;;;5.55;100.00;98390.72;5044259;28;20522;-81
2021/10/15 03:33:05;;;;;;;7.67;2.60;;;4.60;99.90;;;5.58;100.00;98384.44;5039259;28;20467;-81
2021/10/15 03:35:35;;;;;;;4.33;2.33;;;4.60;99.90;;;5.54;100.00;98383.94;5046257;28;20469;-81
2021/10/15 03:38:05;;;;;;;4.87;1.93;;;4.60;99.90;;;5.44;100.00;98384.94;5045167;28;20491;-81
2021/10/15 03:40:33;;;;;;;3.57;2.53;;;4.40;99.90;;;5.40;100.00;98387.00;5042259;28;20550;-82
2021/10/15 03:43:02;;;;;;;3.20;2.20;;;4.40;99.90;;;5.34;100.00;98385.00;5042467;28;20522;-81
2021/10/15 03:45:31;;;;;;;2.37;2.17;;;4.30;99.90;;;5.38;100.00;98383.72;5040841;28;21020;-81
2021/10/15 03:47:59;;;;;;;5.40;2.77;;;4.50;99.90;;;5.36;100.00;98383.06;5041101;28;20547;-81
2021/10/15 03:50:27;;;;;;;2.30;2.10;;;4.40;99.90;;;5.35;100.00;98378.84;5044065;28;20489;-80
2021/10/15 03:52:56;;;;;;;3.20;2.60;;;4.40;99.90;;;5.26;100.00;98374.53;5046930;28;20462;-80
2021/10/15 03:55:26;;;;;;;2.67;2.27;;;4.20;99.90;;;5.25;100.00;98366.91;5045798;28;20460;-81
2021/10/15 03:57:54;;;;;;;2.50;2.03;;;4.20;99.90;;;5.23;100.00;98372.25;5049308;28;20516;-80
2021/10/15 04:00:23;;;;;;;2.90;2.40;;;4.20;99.90;;;5.21;100.00;98375.94;5047294;28;20497;-80
2021/10/15 04:02:51;;;;;;;5.50;2.30;;;4.10;99.90;;;5.25;100.00;98375.50;5046929;28;20462;-81
2021/10/15 04:05:23;;;;;;;2.40;2.20;;;4.20;99.90;;;5.25;100.00;98367.72;5049829;28;20982;-81
2021/10/15 04:07:52;;;;;;;4.00;2.00;;;4.20;99.90;;;5.23;100.00;98376.63;5045016;28;20505;-80
2021/10/15 04:10:20;;;;;;;2.37;2.17;;;4.20;99.90;;;5.24;100.00;98381.63;5048373;28;20888;-80
2021/10/15 04:12:50;;;;;;;5.00;2.60;;;4.30;99.90;;;5.22;100.00;98373.19;5049380;28;20975;-80
2021/10/15 04:15:19;;;;;;;2.47;2.10;;;4.30;99.90;;;5.19;100.00;98376.09;5042143;28;22880;-80
2021/10/15 04:17:47;;;;;;;2.93;2.67;;;4.20;99.90;;;5.16;100.00;98363.41;5049855;28;20524;-79
2021/10/15 04:20:16;;;;;;;2.23;2.03;;;4.20;99.90;;;5.13;100.00;98368.91;5046392;28;20961;-80
2021/10/15 04:22:44;;;;;;;4.73;2.10;;;4.10;99.90;;;5.13;100.00;98363.72;5050438;28;20959;-79
2021/10/15 04:25:13;;;;;;;3.20;2.57;;;4.10;99.90;;;5.15;100.00;98366.97;5048787;28;20481;-79
2021/10/15 04:27:41;;;;;;;2.40;2.10;;;4.20;99.90;;;5.19;100.00;98367.50;5047679;28;20523;-83
2021/10/15 04:30:11;;;;;;;3.03;2.00;;;4.30;99.90;;;5.18;100.00;98358.91;5049852;28;20570;-80
2021/10/15 04:32:40;;;;;;;2.67;2.47;;;4.30;99.90;;;5.15;100.00;98360.97;5049471;28;20508;-79
2021/10/15 04:35:09;;;;;;;2.93;2.50;;;4.20;99.90;;;5.11;100.00;98357.03;5050594;28;21034;-77
2021/10/15 04:37:39;;;;;;;4.30;2.60;;;4.10;99.90;;;5.04;100.00;98354.19;5054415;28;20923;-77
2021/10/15 04:40:09;;;;;;;2.30;2.10;;;4.00;99.90;;;5.07;100.00;98353.91;5050694;28;20830;-78
2021/10/15 04:42:40;;;;;;;6.20;2.30;;;4.10;99.90;;;5.03;100.00;98347.41;5052127;28;20520;-77
2021/10/15 04:45:11;;;;;;;2.33;2.13;;;4.00;99.90;;;5.02;100.00;98336.22;5051404;28;20501;-77
2021/10/15 04:47:39;;;;;;;4.13;2.50;;;4.10;99.90;;;5.02;100.00;98340.59;5054437;28;20453;-77
2021/10/15 04:50:09;;;;;;;4.30;2.93;;;4.10;99.90;;;5.00;100.00;98332.13;5052884;28;20568;-78
2021/10/15 04:52:39;;;;;;;3.77;2.33;;;4.00;99.90;;;4.89;100.00;98340.09;5052751;28;20452;-78
2021/10/15 04:55:09;;;;;;;3.57;2.50;;;3.80;99.90;;;4.89;100.00;98329.75;5047168;28;20465;-78
2021/10/15 04:57:37;;;;;;;4.10;2.83;;;3.80;99.90;;;4.92;100.00;98316.50;5051971;28;20440;-78
2021/10/15 05:00:10;;;;;;;2.30;2.03;;;3.90;99.90;;;4.93;100.00;98321.53;5060274;28;20507;-78
2021/10/15 05:02:41;;;;;;;3.30;2.60;;;3.90;99.90;;;4.84;100.00;98322.41;5051088;28;20458;-78
2021/10/15 05:05:12;;;;;;;4.07;2.30;;;3.80;99.90;;;4.82;100.00;98318.34;5067104;28;20984;-78
2021/10/15 05:07:41;;;;;;;2.50;2.30;;;3.70;99.90;;;4.79;100.00;98321.22;5052580;28;20495;-78
2021/10/15 05:10:10;;;;;;;3.50;2.43;;;3.80;99.90;;;4.76;100.00;98318.88;5046046;28;20492;-77
2021/10/15 05:12:42;;;;;;;3.43;1.93;;;3.70;99.90;;;4.72;100.00;98318.34;5050519;28;20461;-78
2021/10/15 05:15:11;;;;;;;3.03;1.90;;;3.70;99.90;;;4.71;100.00;98321.09;5057841;28;20766;-78
2021/10/15 05:17:42;;;;;;;5.33;2.50;;;3.70;99.90;;;4.72;100.00;98322.75;5051068;28;20457;-78
2021/10/15 05:20:15;;;;;;;2.23;1.97;;;3.80;99.90;;;4.75;100.00;98317.28;5053556;28;20457;-78
2021/10/15 05:22:45;;;;;;;2.77;2.30;;;3.80;99.90;;;4.72;100.00;98314.97;5051097;28;20473;-78
2021/10/15 05:25:15;;;;;;;2.40;2.10;;;3.80;99.90;;;4.74;100.00;98326.00;5062549;28;20488;-78
2021/10/15 05:27:45;;;;;;;2.93;2.23;;;3.80;99.90;;;4.79;100.00;98329.78;5050189;28;20996;-77
2021/10/15 05:30:14;;;;;;;5.10;2.10;;;3.90;99.90;;;4.77;100.00;98326.53;5055760;28;20485;-78
2021/10/15 05:32:44;;;;;;;4.83;2.10;;;3.90;99.90;;;4.74;100.00;98331.16;5047912;28;20473;-77
2021/10/15 05:35:12;;;;;;;8.00;2.23;;;3.80;99.90;;;4.79;100.00;98318.63;5048980;28;20515;-78
2021/10/15 05:37:41;;;;;;;3.63;2.40;;;3.80;99.90;;;4.77;100.00;98315.34;5046512;28;20439;-78
2021/10/15 05:40:12;;;;;;;5.40;2.53;;;3.80;99.90;;;4.80;100.00;98317.63;5051918;28;20446;-78
2021/10/15 05:42:45;;;;;;;6.37;2.87;;;3.90;99.90;;;4.86;100.00;98317.09;5048640;28;20437;-78
2021/10/15 05:45:15;;;;;;;5.10;2.53;;;4.00;99.90;;;4.82;100.00;98316.56;5046930;28;20489;-77
2021/10/15 05:47:45;;;;;;;4.57;2.20;;;3.90;99.90;;;4.76;100.00;98311.09;5047940;28;20441;-78
2021/10/15 05:50:14;;;;;;;3.70;2.13;;;3.70;99.90;;;4.75;100.00;98322.44;5048302;28;20450;-78
2021/10/15 05:52:44;;;;;;;4.07;2.30;;;3.70;99.90;;;4.73;100.00;98314.00;5051939;28;20444;-78
2021/10/15 05:55:26;;;;;;;5.80;2.30;;;3.70;99.90;;;4.78;100.00;98312.63;5049786;28;20453;-78
2021/10/15 06:00:52;;;;;;;5.17;2.23;;;3.80;99.90;;;4.77;100.00;98316.16;5053582;28;20449;-78
2021/10/15 06:03:24;;;;;;;2.20;2.00;;;3.80;99.90;;;4.65;100.00;98317.28;5059700;28;20452;-78
2021/10/15 06:17:00;;;;;;;5.27;2.53;;;3.70;99.90;;;4.65;100.00;98313.91;5054157;28;20465;-77
2021/10/15 06:19:34;;;;;;;5.80;2.63;;;3.70;99.90;;;4.70;100.00;98316.88;5053605;28;20453;-77
2021/10/15 06:22:03;;;;;;;3.67;2.40;;;3.70;99.90;;;4.75;100.00;98312.91;5055057;28;20544;-77
2021/10/15 06:24:32;;;;;;;2.90;2.60;;;3.80;99.90;;;4.80;100.00;98315.88;5047085;28;20970;-78
2021/10/15 06:27:01;;;;;;;5.83;3.10;;;3.80;99.90;;;4.76;100.00;98316.28;5049120;28;20479;-77
2021/10/15 06:29:29;;;;;;;3.20;2.30;;;3.80;99.90;;;4.69;100.00;98305.69;5054690;28;20444;-77
2021/10/15 06:31:58;;;;;;;8.57;2.63;;;3.70;99.90;;;4.70;100.00;98302.16;5052487;28;20553;-77
2021/10/15 06:34:29;;;;;;;3.10;2.23;;;3.70;99.90;;;4.72;100.00;98302.81;5048683;28;20495;-77
2021/10/15 06:36:59;;;;;;;2.60;2.37;;;3.80;99.90;;;4.80;100.00;98308.09;5053841;28;20441;-77
2021/10/15 06:39:28;;;;;;;2.90;2.33;;;3.90;99.90;;;4.85;100.00;98307.69;5051966;28;20454;-77
2021/10/15 06:41:59;;;;;;;3.00;2.10;;;3.90;99.90;;;4.88;100.00;98315.16;5052809;28;20445;-77
2021/10/15 06:44:27;;;;;;;4.13;2.13;;;3.90;99.90;;;4.83;100.00;98314.75;5053039;28;20445;-77
2021/10/15 06:46:56;;;;;;;3.63;2.40;;;3.90;99.90;;;4.88;100.00;98312.56;5056589;28;20453;-77
2021/10/15 06:49:24;;;;;;;3.13;2.50;;;3.90;99.90;;;4.95;100.00;98316.22;5052093;28;20450;-77
2021/10/15 06:51:54;;;;;;;3.10;2.50;;;4.00;99.90;;;4.94;100.00;98311.97;5052619;28;20489;-77
2021/10/15 06:54:23;;;;;;;4.67;2.60;;;4.10;99.90;;;5.00;100.00;98311.38;5053707;28;20465;-77
2021/10/15 06:56:51;;;;;;;3.90;2.73;;;4.00;99.90;;;4.98;100.00;98306.38;5051585;28;20980;-77
2021/10/15 06:59:20;;;;;;;8.30;2.80;;;4.00;99.90;;;5.06;100.00;98313.41;5055834;28;20457;-77
2021/10/15 07:01:48;;;;;;;3.03;2.70;;;4.10;99.90;;;5.17;100.00;98315.81;5051450;28;20445;-77
2021/10/15 07:04:17;;;;;;;5.10;2.83;;;4.20;99.90;;;5.25;100.00;98320.25;5055263;28;20525;-77
2021/10/15 07:06:45;;;;;;;4.10;2.93;;;4.30;99.90;;;5.27;100.00;98324.34;5064122;28;20454;-77
2021/10/15 07:09:15;;;;;;;5.93;3.17;;;4.30;99.90;;;5.33;100.00;98320.34;5057198;28;20451;-77
2021/10/15 07:11:46;;;;;;;3.57;2.43;;;4.40;99.90;;;5.39;100.00;98328.34;5051242;28;20484;-77
2021/10/15 07:14:14;;;;;;;3.77;2.20;;;4.40;99.90;;;5.46;100.00;98320.78;5048452;28;20496;-77
2021/10/15 07:16:43;;;;;;;6.43;3.00;;;4.50;99.90;;;5.52;100.00;98317.59;5050741;28;20471;-77
2021/10/15 07:19:12;;;;;;;8.40;3.10;;;4.60;99.90;;;5.59;100.00;98311.66;5047680;28;20523;-77
2021/10/15 07:21:40;;;;;;;5.70;2.63;;;4.70;99.90;;;5.68;100.00;98309.16;5062865;28;20439;-77
2021/10/15 07:24:09;;;;;;;4.13;3.30;;;4.80;99.90;;;5.73;100.00;98304.31;5052983;28;20450;-77
2021/10/15 07:26:40;;;;;;;5.93;2.90;;;4.80;99.90;;;5.82;100.00;98300.81;5051036;28;20925;-77
2021/10/15 07:29:08;;;;;;;4.43;3.43;;;4.90;99.90;;;5.93;100.00;98300.63;5061053;28;20474;-78
2021/10/15 07:31:37;;;;;;;5.30;3.60;;;5.10;99.90;;;5.99;100.00;98294.81;5051610;28;20496;-77
2021/10/15 07:34:08;;;;;;;5.43;3.13;;;5.10;99.90;;;6.09;100.00;98300.72;5054828;28;20528;-77
2021/10/15 07:36:38;;;;;;;5.17;3.37;;;5.20;99.90;;;6.18;100.00;98302.41;5051760;28;20540;-77
2021/10/15 07:39:07;;;;;;;4.90;3.53;;;5.30;99.90;;;6.24;100.00;98298.38;5050665;28;20440;-77
2021/10/15 07:41:35;;;;;;;7.30;3.77;;;5.40;99.90;;;6.31;100.00;98297.63;5049972;28;20517;-77
2021/10/15 07:44:05;;;;;;;5.17;3.30;;;5.40;99.90;;;6.40;100.00;98294.09;5049976;28;21031;-77
2021/10/15 07:46:34;;;;;;;4.80;3.50;;;5.50;99.90;;;6.50;100.00;98304.34;5050801;28;20942;-77
2021/10/15 07:49:03;;;;;;;7.03;4.00;;;5.70;99.90;;;6.55;100.00;98313.34;5048112;28;20458;-77
2021/10/15 07:51:31;;;;;;;7.83;3.50;;;5.70;99.90;;;6.65;100.00;98320.19;5052699;28;20488;-77
2021/10/15 07:54:00;;;;;;;5.40;3.77;;;5.90;99.90;;;6.71;100.00;98316.97;5050037;28;20534;-77
2021/10/15 07:56:28;;;;;;;6.10;3.77;;;5.90;99.90;;;6.81;100.00;98320.25;5052177;28;20515;-77
2021/10/15 07:58:57;;;;;;;6.90;4.50;;;6.00;99.90;;;6.90;100.00;98322.75;5056200;28;20442;-77
2021/10/15 08:01:28;;;;;;;9.60;5.53;;;6.10;99.90;;;6.99;100.00;98319.19;5044734;28;20442;-77
2021/10/15 08:03:59;;;;;;;7.87;4.87;;;6.20;99.90;;;7.09;100.00;98324.25;5056064;28;20438;-78
2021/10/15 08:06:47;;;;;;;8.87;4.87;;;6.30;99.90;;;7.19;100.00;98326.72;5050297;28;20527;-77
2021/10/15 08:09:16;;;;;;;12.83;5.47;;;6.40;99.90;;;7.26;100.00;98320.72;5046853;28;21012;-78
2021/10/15 08:11:44;;;;;;;9.53;6.10;;;6.50;99.90;;;7.34;100.00;98328.56;5049707;28;20541;-77
2021/10/15 08:14:13;;;;;;;8.60;5.60;;;6.60;99.90;;;7.42;100.00;98330.34;5049019;28;20445;-78
2021/10/15 08:16:43;;;;;;;10.03;5.80;;;6.60;99.90;;;7.48;100.00;98324.50;5050371;28;20465;-78
2021/10/15 08:19:27;;;;;;;11.93;6.53;;;6.70;99.90;;;7.54;100.00;98327.28;5048411;28;20944;-78
2021/10/15 08:21:55;;;;;;;10.20;5.40;;;6.80;99.90;;;7.62;100.00;98320.47;5047671;28;20445;-78
2021/10/15 08:24:24;;;;;;;13.17;6.40;;;6.80;99.90;;;7.66;100.00;98330.41;5052173;28;20519;-78
2021/10/15 08:26:54;;;;;;;11.30;6.60;;;6.90;99.90;;;7.73;100.00;98330.56;5051706;28;20476;-77
2021/10/15 08:29:24;;;;;;;10.43;6.70;;;7.00;99.90;;;7.77;100.00;98324.88;5056209;28;20939;-78
2021/10/15 08:31:54;;;;;;;8.63;6.10;;;7.00;99.90;;;7.82;100.00;98335.59;5055587;28;21032;-78
2021/10/15 08:34:24;;;;;;;8.70;4.90;;;7.10;99.90;;;7.86;100.00;98334.31;5054932;28;20464;-78
2021/10/15 08:36:53;;;;;;;9.23;5.33;;;7.10;99.90;;;7.92;100.00;98335.44;5056172;28;20783;-78
2021/10/15 08:39:26;;;;;;;17.33;6.33;;;7.20;99.90;;;7.97;100.00;98340.97;5051275;28;20448;-78
2021/10/15 08:41:55;;;;;;;15.13;6.10;;;7.20;99.90;;;8.03;100.00;98343.75;5049195;28;20456;-78
2021/10/15 08:44:32;;;;;;;9.43;6.03;;;7.30;99.90;;;8.09;100.00;98337.88;5051952;28;20495;-78
2021/10/15 08:47:02;;;;;;;9.17;5.03;;;7.30;99.90;;;8.17;100.00;98339.66;5048777;28;20461;-78
2021/10/15 08:49:51;;;;;;;13.20;6.70;;;7.40;99.90;;;8.24;100.00;98338.03;5049261;28;20468;-78
2021/10/15 08:52:19;;;;;;;12.77;6.93;;;7.50;99.90;;;8.32;100.00;98348.47;5048593;28;20489;-78
2021/10/15 08:54:48;;;;;;;11.60;7.13;;;7.60;99.90;;;8.39;100.00;98354.66;5051109;28;20534;-78
2021/10/15 08:57:17;;;;;;;13.20;7.50;;;7.60;99.90;;;8.47;100.00;98346.78;5052946;28;20818;-78
2021/10/15 08:59:49;;;;;;;13.40;7.10;;;7.80;99.90;;;8.55;100.00;98359.81;5048810;28;20437;-78
2021/10/15 09:02:22;;;;;;;14.30;6.23;;;7.80;99.90;;;8.65;100.00;98358.81;5049264;28;20823;-78
2021/10/15 09:04:54;;;;;;;11.73;7.23;;;7.90;99.90;;;8.67;100.00;98349.88;5049018;28;20457;-78
2021/10/15 09:07:24;;;;;;;15.23;7.17;;;7.90;99.90;;;8.75;100.00;98355.03;5054829;28;20437;-78
2021/10/15 09:10:11;;;;;;;14.33;7.20;;;8.00;99.90;;;8.85;100.00;98354.84;5058772;28;20445;-78
2021/10/15 09:12:45;;;;;;;12.30;7.57;;;8.10;99.90;;;8.94;100.00;98348.63;5047946;28;20485;-78
2021/10/15 09:15:16;;;;;;;14.37;6.83;;;8.20;99.90;;;9.01;100.00;98352.19;5047974;28;20498;-78
2021/10/15 09:17:54;;;;;;;15.13;7.30;;;8.30;99.90;;;9.10;100.00;98344.16;5048913;28;20460;-78
2021/10/15 09:20:31;;;;;;;16.50;7.13;;;8.40;99.90;;;9.21;100.00;98344.75;5048679;28;21035;-78
2021/10/15 09:23:17;;;;;;;12.57;7.23;;;8.50;99.90;;;9.30;100.00;98344.53;5044733;28;20985;-78
2021/10/15 09:25:47;;;;;;;13.87;7.50;;;8.60;99.90;;;9.39;100.00;98332.25;5047158;28;20545;-78
2021/10/15 09:28:19;;;;;;;12.17;7.10;;;8.70;99.90;;;9.50;100.00;98332.69;5048700;28;20873;-78
2021/10/15 09:30:52;;;;;;;8.50;6.43;;;8.90;99.90;;;9.59;100.00;98334.25;5049425;28;20444;-78
2021/10/15 09:33:22;;;;;;;10.63;5.97;;;9.00;99.90;;;9.69;100.00;98335.81;5052412;28;20500;-78
2021/10/15 09:36:03;;;;;;;11.43;6.00;;;9.10;99.90;;;9.77;100.00;98328.75;5048041;28;20988;-78
2021/10/15 09:38:31;;;;;;;12.77;6.57;;;9.20;99.90;;;9.84;100.00;98334.88;5049826;28;20433;-79
2021/10/15 09:41:00;;;;;;;10.47;6.10;;;9.30;99.90;;;9.92;100.00;98334.84;5055417;28;20515;-79
2021/10/15 09:43:35;;;;;;;14.27;6.23;;;9.40;99.90;;;10.03;100.00;98337.00;5048284;28;20490;-78
2021/10/15 09:46:04;;;;;;;18.83;6.97;;;9.50;99.90;;;10.11;100.00;98339.56;5050986;28;20918;-78
2021/10/15 09:48:38;;;;;;;11.43;6.30;;;9.60;99.90;;;10.20;100.00;98336.91;5048827;28;20445;-78
2021/10/15 09:51:15;;;;;;;10.90;6.27;;;9.70;99.90;;;10.29;100.00;98335.84;5048435;28;21011;-78
2021/10/15 09:54:11;;;;;;;14.80;5.43;;;9.80;99.90;;;10.36;100.00;98334.94;5050787;28;20558;-79
2021/10/15 09:56:41;;;;;;;11.20;5.53;;;9.80;99.90;;;10.42;100.00;98331.63;5052300;28;20441;-78
2021/10/15 09:59:10;;;;;;;9.90;6.17;;;9.90;99.90;;;10.49;100.00;98326.47;5048839;28;20484;-78
2021/10/15 10:01:41;;;;;;;10.40;5.90;;;9.90;99.90;;;10.58;100.00;98328.84;5048949;28;20485;-78
2021/10/15 10:04:13;;;;;;;11.13;6.53;;;10.00;99.90;;;10.66;100.00;98322.69;5044203;28;20483;-79
2021/10/15 10:06:42;;;;;;;14.13;6.47;;;10.10;99.90;;;10.72;100.00;98321.19;5055124;28;20468;-79
2021/10/15 10:09:11;;;;;;;13.73;6.40;;;10.10;99.90;;;10.77;100.00;98322.25;5055888;28;20494;-78
2021/10/15 10:11:42;;;;;;;10.40;6.23;;;10.20;99.90;;;10.85;100.00;98323.97;5047298;28;20502;-79
2021/10/15 10:14:18;;;;;;;9.47;6.20;;;10.20;99.90;;;10.92;100.00;98324.88;5052267;28;20531;-79
2021/10/15 10:16:49;;;;;;;9.33;5.30;;;10.40;99.90;;;10.96;100.00;98336.59;5047816;28;20465;-78
2021/10/15 10:19:23;;;;;;;9.77;5.50;;;10.40;99.90;;;11.01;100.00;98332.44;5054059;28;20461;-78
2021/10/15 10:21:52;;;;;;;10.33;5.30;;;10.40;99.90;;;11.08;100.00;98328.09;5048462;28;20542;-78
2021/10/15 10:24:27;;;;;;;15.67;5.97;;;10.50;99.90;;;11.11;100.00;98326.91;5055141;28;20469;-78
2021/10/15 10:26:56;;;;;;;8.30;5.23;;;10.50;99.90;;;11.20;100.00;98319.75;5055401;28;20808;-78
2021/10/15 10:29:26;;;;;;;10.80;6.10;;;10.60;99.90;;;11.27;100.00;98320.66;5054971;28;20511;-78
2021/10/15 10:32:13;;;;;;;8.10;4.70;;;10.60;99.90;;;11.36;100.00;98319.53;5052714;28;20546;-79
2021/10/15 10:34:43;;;;;;;7.73;5.57;;;10.80;99.90;;;11.45;100.00;98313.19;5048855;28;20531;-79
2021/10/15 10:37:16;;;;;;;8.57;5.40;;;10.90;99.90;;;11.52;100.00;98304.41;5050417;28;20444;-78
2021/10/15 10:40:10;;;;;;;7.73;4.70;;;11.00;99.90;;;11.59;100.00;98305.28;5051672;28;20475;-79
2021/10/15 10:43:04;;;;;;;8.17;5.00;;;11.10;99.90;;;11.66;100.00;98299.31;5047573;28;20480;-78
2021/10/15 10:45:32;;;;;;;13.60;6.63;;;11.10;99.90;;;11.74;100.00;98302.63;5050865;28;20445;-79
2021/10/15 10:48:08;;;;;;;10.73;4.77;;;11.20;99.90;;;11.83;100.00;98311.19;5051544;28;20815;-79
2021/10/15 10:50:38;;;;;;;9.83;5.33;;;11.30;99.90;;;11.89;100.00;98299.94;5053285;28;20544;-79